Time;durP1;ratioP1;P1;durP2;ratioP2;P2;SDS_P1;SDS_P2;PMS_P1;PMS_P2;Temp;Humidity;BMP_temperature;BMP_pressure;BME280_temperature;BME280_humidity;BME280_pressure;Samples;Min_cycle;Max_cycle;Signal;HPM_P1;HPM_P2
2022/12/28 00:02:11;;;;;;;1999.90;999.90;;;7.70;99.90;;;;;;5016185;28;20192;-71
2022/12/28 00:04:36;;;;;;;1999.90;999.90;;;7.80;99.90;;;;;;5016404;28;20177;-72
2022/12/28 00:07:02;;;;;;;1999.90;999.90;;;7.70;99.90;;;;;;5017024;28;20200;-71
2022/12/28 00:09:28;;;;;;;1999.90;999.90;;;7.80;99.90;;;;;;5015805;28;20184;-70
2022/12/28 00:11:53;;;;;;;1999.90;999.90;;;7.80;99.90;;;;;;5016042;28;20595;-71
2022/12/28 00:14:19;;;;;;;1999.90;999.90;;;7.80;99.90;;;;;;5015941;28;20178;-71
2022/12/28 00:16:45;;;;;;;1999.90;999.90;;;7.80;99.90;;;;;;5015751;28;20295;-71
2022/12/28 00:19:15;;;;;;;1999.90;999.90;;;7.90;99.90;;;;;;5015811;28;20446;-71
2022/12/28 00:21:42;;;;;;;1999.90;999.90;;;7.80;99.90;;;;;;5016241;28;20225;-70
2022/12/28 00:24:13;;;;;;;1999.90;999.90;;;7.80;99.90;;;;;;5015821;28;20553;-68
2022/12/28 00:26:39;;;;;;;1999.90;999.90;;;7.80;99.90;;;;;;5015676;28;20455;-71
2022/12/28 00:29:04;;;;;;;1999.90;999.90;;;7.80;99.90;;;;;;5015567;28;20423;-71
2022/12/28 00:31:30;;;;;;;1999.90;999.90;;;7.80;99.90;;;;;;5015716;28;20173;-70
2022/12/28 00:33:56;;;;;;;1999.90;999.90;;;7.80;99.90;;;;;;5015464;28;20173;-71
2022/12/28 00:36:21;;;;;;;1999.90;999.90;;;7.80;99.90;;;;;;5015346;28;20198;-70
2022/12/28 00:38:47;;;;;;;1999.90;999.90;;;7.80;99.90;;;;;;5015414;28;20176;-71
2022/12/28 00:41:12;;;;;;;1999.90;999.90;;;7.80;99.90;;;;;;5015641;28;20182;-71
2022/12/28 00:43:38;;;;;;;1999.90;999.90;;;7.80;99.90;;;;;;5015736;28;20243;-68
2022/12/28 00:46:04;;;;;;;1999.90;999.90;;;7.80;99.90;;;;;;5015082;28;20215;-68
2022/12/28 00:48:29;;;;;;;1999.90;999.90;;;7.70;1.00;;;;;;5015198;28;20174;-68
2022/12/28 00:51:13;;;;;;;1999.90;999.90;;;7.80;1.00;;;;;;5015538;28;20199;-68
2022/12/28 00:53:38;;;;;;;1999.90;999.90;;;7.80;1.00;;;;;;5015349;28;20194;-68
2022/12/28 00:56:16;;;;;;;1999.90;999.90;;;7.90;1.00;;;;;;5015217;28;20429;-68
2022/12/28 00:58:42;;;;;;;1999.90;999.90;;;7.90;1.00;;;;;;5015295;28;20256;-68
2022/12/28 01:01:19;;;;;;;1999.90;999.90;;;7.90;1.00;;;;;;5015513;28;20413;-68
2022/12/28 01:03:46;;;;;;;1999.90;999.90;;;8.00;99.90;;;;;;5015746;28;20400;-68
2022/12/28 01:06:14;;;;;;;1999.90;999.90;;;8.00;1.00;;;;;;5015651;28;21012;-69
2022/12/28 01:08:41;;;;;;;1999.90;999.90;;;8.10;1.00;;;;;;5015181;28;20409;-68
2022/12/28 01:11:27;;;;;;;1999.90;999.90;;;8.10;1.00;;;;;;5014998;28;20507;-68
2022/12/28 01:13:53;;;;;;;1999.90;999.90;;;8.10;1.00;;;;;;5015915;28;20411;-69
2022/12/28 01:16:22;;;;;;;1999.90;999.90;;;8.10;1.00;;;;;;5015337;28;20446;-69
2022/12/28 01:18:51;;;;;;;1999.90;999.90;;;8.20;1.00;;;;;;5014070;28;20432;-68
2022/12/28 01:21:20;;;;;;;1999.90;999.90;;;8.10;1.00;;;;;;5014250;28;20922;-70
2022/12/28 01:23:47;;;;;;;1999.90;999.90;;;8.10;1.00;;;;;;5014276;28;20504;-70
2022/12/28 01:26:14;;;;;;;1999.90;999.90;;;8.10;1.00;;;;;;5014014;28;20457;-70
2022/12/28 01:28:40;;;;;;;1999.90;999.90;;;8.20;1.00;;;;;;5013988;28;20467;-71
2022/12/28 01:31:15;;;;;;;1999.90;999.90;;;8.20;1.00;;;;;;5014134;28;20442;-71
2022/12/28 01:33:41;;;;;;;1999.90;999.90;;;8.20;1.00;;;;;;5014184;28;20450;-71
2022/12/28 01:36:28;;;;;;;1999.90;999.90;;;8.20;1.00;;;;;;5013809;28;20424;-70
2022/12/28 01:38:57;;;;;;;1999.90;999.90;;;8.20;1.00;;;;;;5014101;28;20409;-70
2022/12/28 01:41:23;;;;;;;1999.90;999.90;;;8.30;1.00;;;;;;5014046;28;20478;-70
2022/12/28 01:43:52;;;;;;;1999.90;999.90;;;8.30;1.00;;;;;;5013848;28;20412;-70
2022/12/28 01:46:33;;;;;;;1999.90;999.90;;;8.30;1.00;;;;;;5013560;28;20457;-71
2022/12/28 01:49:06;;;;;;;1999.90;999.90;;;8.30;1.00;;;;;;5013610;28;20397;-70
2022/12/28 01:52:00;;;;;;;1999.90;999.90;;;8.40;1.00;;;;;;5013918;28;20413;-70
2022/12/28 01:54:31;;;;;;;1999.90;999.90;;;8.40;1.00;;;;;;4995945;28;20412;-70
2022/12/28 01:56:57;;;;;;;1999.90;999.90;;;8.40;1.00;;;;;;5013419;28;20424;-71
2022/12/28 01:59:26;;;;;;;1999.90;999.90;;;8.40;1.00;;;;;;5013384;28;20419;-70
2022/12/28 02:01:52;;;;;;;1999.90;999.90;;;8.50;99.90;;;;;;5013547;28;20417;-70
2022/12/28 02:04:18;;;;;;;1999.90;999.90;;;8.40;1.00;;;;;;5012949;28;20780;-70
2022/12/28 02:06:43;;;;;;;1999.90;999.90;;;8.50;1.00;;;;;;5013303;28;20679;-70
2022/12/28 02:09:33;;;;;;;1999.90;999.90;;;8.50;1.00;;;;;;5013169;28;20186;-70
2022/12/28 02:12:00;;;;;;;1999.90;999.90;;;8.50;99.90;;;;;;5013336;28;20410;-71
2022/12/28 02:14:26;;;;;;;1999.90;999.90;;;8.50;99.90;;;;;;5013400;28;20790;-70
2022/12/28 02:16:53;;;;;;;1999.90;999.90;;;8.60;99.90;;;;;;5012999;28;20453;-70
2022/12/28 02:19:30;;;;;;;1999.90;999.90;;;8.60;99.90;;;;;;5012908;28;20559;-70
2022/12/28 02:22:18;;;;;;;1999.90;999.90;;;8.50;99.90;;;;;;5013160;28;20467;-70
2022/12/28 02:25:21;;;;;;;1999.90;999.90;;;8.60;99.90;;;;;;5013035;28;20512;-70
2022/12/28 02:27:50;;;;;;;1999.90;999.90;;;8.70;99.90;;;;;;5012699;28;20427;-71
2022/12/28 02:30:16;;;;;;;1999.90;999.90;;;8.60;99.90;;;;;;5012917;28;20771;-70
2022/12/28 02:33:12;;;;;;;1999.90;999.90;;;8.70;99.90;;;;;;5013054;28;20404;-70
2022/12/28 02:35:45;;;;;;;1999.90;999.90;;;8.70;99.90;;;;;;5012909;28;20465;-68
2022/12/28 02:38:33;;;;;;;1999.90;999.90;;;8.70;99.90;;;;;;5012670;28;20412;-67
2022/12/28 02:41:12;;;;;;;1999.90;999.90;;;8.80;99.90;;;;;;5012872;28;20416;-70
2022/12/28 02:43:38;;;;;;;1999.90;999.90;;;8.70;99.90;;;;;;5012888;28;20414;-70
2022/12/28 02:52:23;;;;;;;1999.90;999.90;;;8.80;99.90;;;;;;5012969;28;20481;-70
2022/12/28 02:57:54;;;;;;;1999.90;999.90;;;8.90;99.90;;;;;;5012242;28;20471;-71
2022/12/28 03:00:25;;;;;;;1999.90;999.90;;;8.90;99.90;;;;;;5012569;28;20406;-70
2022/12/28 03:03:11;;;;;;;1999.90;999.90;;;8.90;99.90;;;;;;5012625;28;20421;-70
2022/12/28 03:09:27;;;;;;;1999.90;999.90;;;8.90;99.90;;;;;;5012544;28;20519;-70
2022/12/28 03:12:00;;;;;;;1999.90;999.90;;;9.00;99.90;;;;;;5012380;28;20450;-70
2022/12/28 03:14:31;;;;;;;1999.90;999.90;;;9.00;99.90;;;;;;5012278;28;20422;-70
2022/12/28 03:31:07;;;;;;;1999.90;999.90;;;9.10;99.90;;;;;;5012425;28;20412;-68
2022/12/28 03:33:37;;;;;;;1999.90;999.90;;;9.20;99.90;;;;;;5012103;28;20435;-69
2022/12/28 03:36:13;;;;;;;1999.90;999.90;;;9.20;99.90;;;;;;5012124;28;20801;-68
2022/12/28 03:38:57;;;;;;;1999.90;999.90;;;9.20;99.90;;;;;;5011972;28;20437;-70
2022/12/28 03:44:51;;;;;;;1999.90;999.90;;;9.30;84.20;;;;;;5004567;28;20427;-71
2022/12/28 03:47:20;;;;;;;1999.90;999.90;;;9.30;99.90;;;;;;5012684;28;20518;-71
2022/12/28 03:49:45;;;;;;;1999.90;999.90;;;9.30;99.90;;;;;;5012477;28;20419;-69
2022/12/28 03:52:12;;;;;;;1999.90;999.90;;;9.40;99.90;;;;;;5012068;28;20469;-71
2022/12/28 03:54:39;;;;;;;1999.90;999.90;;;9.30;99.90;;;;;;5011994;28;20200;-70
2022/12/28 03:57:05;;;;;;;1999.90;999.90;;;9.30;61.70;;;;;;5011804;28;20473;-71
2022/12/28 03:59:30;;;;;;;1999.90;999.90;;;9.40;95.20;;;;;;5011712;28;20442;-70
2022/12/28 04:01:56;;;;;;;1999.90;999.90;;;9.80;66.60;;;;;;5011889;28;20182;-70
2022/12/28 04:04:22;;;;;;;1999.90;999.90;;;9.40;16.60;;;;;;5012032;28;20183;-70
2022/12/28 04:06:47;;;;;;;1999.90;999.90;;;9.50;23.20;;;;;;5011650;28;20676;-71
2022/12/28 04:09:13;;;;;;;1999.90;999.90;;;9.50;25.60;;;;;;5011707;28;20176;-70
2022/12/28 04:11:38;;;;;;;1999.90;999.90;;;9.40;45.50;;;;;;5011763;28;20183;-70
2022/12/28 04:14:04;;;;;;;1999.90;999.90;;;9.40;22.60;;;;;;5011787;28;20234;-70
2022/12/28 04:16:30;;;;;;;1999.90;999.90;;;9.60;31.80;;;;;;5011540;28;20208;-71
2022/12/28 04:18:55;;;;;;;1999.90;999.90;;;9.60;75.30;;;;;;5011568;28;20173;-70
2022/12/28 04:21:21;;;;;;;1999.90;999.90;;;9.50;93.80;;;;;;5011688;28;20180;-71
2022/12/28 04:23:46;;;;;;;1999.90;999.90;;;9.80;47.80;;;;;;5011583;28;20191;-70
2022/12/28 04:26:14;;;;;;;1999.90;999.90;;;9.50;35.70;;;;;;5011410;28;20563;-70
2022/12/28 04:28:41;;;;;;;1999.90;999.90;;;9.70;24.90;;;;;;5014907;28;20196;-71
2022/12/28 04:31:09;;;;;;;1999.90;999.90;;;9.60;52.30;;;;;;5015207;28;20406;-71
2022/12/28 04:33:36;;;;;;;1999.90;999.90;;;9.50;77.80;;;;;;5015196;28;20455;-70
2022/12/28 04:36:05;;;;;;;1999.90;999.90;;;9.60;34.70;;;;;;5015066;28;20859;-70
2022/12/28 04:38:31;;;;;;;1999.90;999.90;;;9.70;79.70;;;;;;5014890;28;20926;-70
2022/12/28 04:40:56;;;;;;;1999.90;999.90;;;9.60;83.30;;;;;;5015116;28;20415;-70
2022/12/28 04:43:22;;;;;;;1999.90;999.90;;;9.70;99.90;;;;;;5014988;28;20990;-71
2022/12/28 04:45:59;;;;;;;1999.90;999.90;;;10.10;99.90;;;;;;5014761;28;20199;-70
2022/12/28 04:48:26;;;;;;;1999.90;999.90;;;9.70;99.90;;;;;;5014783;28;20204;-70
2022/12/28 04:50:52;;;;;;;1999.90;999.90;;;9.90;99.90;;;;;;5014929;28;20423;-70
2022/12/28 04:53:18;;;;;;;1999.90;999.90;;;10.00;99.90;;;;;;5014847;28;20431;-68
2022/12/28 04:55:44;;;;;;;1999.90;999.90;;;9.60;99.90;;;;;;5014657;28;20485;-67
2022/12/28 04:58:09;;;;;;;1999.90;999.90;;;10.00;99.90;;;;;;5014363;28;20175;-68
2022/12/28 05:00:35;;;;;;;1999.90;999.90;;;9.70;99.90;;;;;;5014615;28;20872;-68
2022/12/28 05:03:00;;;;;;;1999.90;999.90;;;9.80;99.90;;;;;;5014640;28;20187;-69
2022/12/28 05:05:27;;;;;;;1999.90;999.90;;;9.80;99.90;;;;;;5014528;28;20282;-68
2022/12/28 05:07:53;;;;;;;1999.90;999.90;;;9.70;99.90;;;;;;5014202;28;20726;-68
2022/12/28 05:10:19;;;;;;;1999.90;999.90;;;9.80;99.90;;;;;;5014438;28;20407;-69
2022/12/28 05:12:44;;;;;;;1999.90;999.90;;;9.90;99.90;;;;;;5014369;28;20298;-67
2022/12/28 05:15:10;;;;;;;1999.90;999.90;;;9.90;99.10;;;;;;5014397;28;20238;-67
2022/12/28 05:17:36;;;;;;;1999.90;999.90;;;9.90;99.60;;;;;;5013926;28;20219;-69
2022/12/28 05:20:03;;;;;;;1999.90;999.90;;;9.90;99.90;;;;;;5014289;28;20540;-68
2022/12/28 05:22:28;;;;;;;1999.90;999.90;;;9.90;39.80;;;;;;5014248;28;20176;-67
2022/12/28 05:24:54;;;;;;;1999.90;999.90;;;10.10;10.30;;;;;;5014149;28;20419;-67
2022/12/28 05:27:19;;;;;;;1999.90;999.90;;;9.90;1.00;;;;;;5013983;28;20188;-69
2022/12/28 05:29:45;;;;;;;1999.90;999.90;;;10.30;7.30;;;;;;5015529;28;20190;-68
2022/12/28 05:32:10;;;;;;;1999.90;999.90;;;10.00;4.70;;;;;;5015466;28;20172;-68
2022/12/28 05:34:36;;;;;;;1999.90;999.90;;;9.90;29.00;;;;;;5015080;28;20173;-68
2022/12/28 05:37:02;;;;;;;1999.90;999.90;;;9.90;1.00;;;;;;5015034;28;20225;-68
2022/12/28 05:39:27;;;;;;;1999.90;999.90;;;10.00;1.00;;;;;;5013812;28;20203;-68
2022/12/28 05:41:53;;;;;;;1999.90;999.90;;;10.20;1.00;;;;;;5014776;28;20168;-71
2022/12/28 05:44:18;;;;;;;1999.90;999.90;;;9.90;1.00;;;;;;5014622;28;20183;-71
2022/12/28 05:46:44;;;;;;;1999.90;999.90;;;10.00;1.00;;;;;;5014216;28;20581;-71
2022/12/28 05:49:10;;;;;;;1999.90;999.90;;;10.10;1.00;;;;;;5014265;28;20176;-71
2022/12/28 05:51:35;;;;;;;1999.90;999.90;;;10.00;1.00;;;;;;5013847;28;20550;-70
2022/12/28 05:54:03;;;;;;;1999.90;999.90;;;10.00;1.00;;;;;;5013804;28;20168;-71
2022/12/28 05:56:30;;;;;;;1999.90;999.90;;;10.10;33.10;;;;;;5013373;28;20609;-71
2022/12/28 05:59:04;;;;;;;1999.90;999.90;;;10.00;20.10;;;;;;5013385;28;20490;-70
2022/12/28 06:01:32;;;;;;;1999.90;999.90;;;10.10;32.70;;;;;;5013775;28;20406;-70
2022/12/28 06:04:03;;;;;;;1999.90;999.90;;;10.20;99.90;;;;;;5013543;28;20965;-70
2022/12/28 06:06:30;;;;;;;1999.90;999.90;;;10.00;99.90;;;;;;5013172;28;20461;-69
2022/12/28 06:08:56;;;;;;;1999.90;999.90;;;10.20;99.90;;;;;;5013276;28;20410;-69
2022/12/28 06:11:24;;;;;;;1999.90;999.90;;;10.00;99.90;;;;;;5013266;28;20418;-69
2022/12/28 06:13:51;;;;;;;1999.90;999.90;;;9.90;99.90;;;;;;5013376;28;20166;-68
2022/12/28 06:16:19;;;;;;;1999.90;999.90;;;10.00;99.90;;;;;;5013029;28;20442;-70
2022/12/28 06:18:46;;;;;;;1999.90;999.90;;;10.10;99.90;;;;;;5013032;28;20410;-69
2022/12/28 06:21:26;;;;;;;1999.90;999.90;;;9.90;99.90;;;;;;5013171;28;20501;-69
2022/12/28 06:23:56;;;;;;;1999.90;999.90;;;9.90;99.90;;;;;;5013166;28;20900;-69
2022/12/28 06:26:22;;;;;;;1999.90;999.90;;;9.80;99.90;;;;;;5012812;28;20450;-69
2022/12/28 06:28:48;;;;;;;1999.90;999.90;;;10.00;99.90;;;;;;5012920;28;20452;-69
2022/12/28 06:31:17;;;;;;;1999.90;999.90;;;10.00;99.90;;;;;;5013061;28;20603;-69
2022/12/28 06:33:43;;;;;;;1999.90;999.90;;;10.20;99.90;;;;;;5013004;28;20416;-69
2022/12/28 06:36:25;;;;;;;1999.90;999.90;;;10.10;99.90;;;;;;5012800;28;20427;-68
2022/12/28 06:38:53;;;;;;;1999.90;999.90;;;9.90;99.90;;;;;;5012767;28;20405;-69
2022/12/28 06:41:20;;;;;;;1999.90;999.90;;;9.90;99.90;;;;;;5013003;28;20412;-69
2022/12/28 06:43:46;;;;;;;1999.90;999.90;;;10.00;99.90;;;;;;5012804;28;20748;-69
2022/12/28 06:46:14;;;;;;;1999.90;999.90;;;10.10;99.90;;;;;;5012646;28;20466;-69
2022/12/28 06:48:40;;;;;;;1999.90;999.90;;;10.00;1.00;;;;;;5012494;28;20425;-69
2022/12/28 06:51:19;;;;;;;1999.90;999.90;;;9.90;1.00;;;;;;5012513;28;20902;-69
2022/12/28 06:53:46;;;;;;;1999.90;999.90;;;9.90;1.00;;;;;;5012749;28;20407;-69
2022/12/28 06:56:24;;;;;;;1999.90;999.90;;;9.90;1.00;;;;;;5012425;28;20430;-69
2022/12/28 06:58:51;;;;;;;1999.90;999.90;;;9.90;1.00;;;;;;5012448;28;20401;-69
2022/12/28 07:01:20;;;;;;;1999.90;999.90;;;9.90;1.00;;;;;;5012531;28;20404;-68
2022/12/28 07:03:47;;;;;;;1999.90;999.90;;;10.10;1.00;;;;;;5012520;28;20425;-69
2022/12/28 07:06:14;;;;;;;1999.90;999.90;;;10.00;1.00;;;;;;5012274;28;20509;-69
2022/12/28 07:08:41;;;;;;;1999.90;999.90;;;10.10;1.00;;;;;;5012290;28;20410;-69
2022/12/28 07:11:09;;;;;;;1999.90;999.90;;;9.90;1.00;;;;;;5012413;28;20398;-69
2022/12/28 07:13:35;;;;;;;1999.90;999.90;;;10.00;1.00;;;;;;5012287;28;20411;-69
2022/12/28 07:16:06;;;;;;;1999.90;999.90;;;10.00;1.00;;;;;;5012096;28;20441;-69
2022/12/28 07:18:32;;;;;;;1999.90;999.90;;;10.00;1.00;;;;;;5013231;28;20172;-69
2022/12/28 07:21:04;;;;;;;1999.90;999.90;;;10.00;1.00;;;;;;5013084;28;20440;-69
2022/12/28 07:23:30;;;;;;;1999.90;999.90;;;10.00;1.00;;;;;;5013051;28;20423;-69
2022/12/28 07:26:02;;;;;;;1999.90;999.90;;;9.90;1.00;;;;;;5012742;28;20450;-70
2022/12/28 07:28:28;;;;;;;1999.90;999.90;;;10.10;1.00;;;;;;5013975;28;20438;-70
2022/12/28 07:30:53;;;;;;;1999.90;999.90;;;10.00;1.00;;;;;;5015179;28;20427;-70
2022/12/28 07:33:19;;;;;;;1999.90;999.90;;;10.20;1.00;;;;;;5013737;28;20168;-69
2022/12/28 07:35:44;;;;;;;1999.90;999.90;;;10.10;1.00;;;;;;5013241;28;20242;-69
2022/12/28 07:38:10;;;;;;;1999.90;999.90;;;10.20;1.00;;;;;;5012906;28;20189;-69
2022/12/28 07:40:35;;;;;;;1999.90;999.90;;;10.10;1.00;;;;;;5013141;28;20183;-70
2022/12/28 07:43:01;;;;;;;1999.90;999.90;;;10.20;1.00;;;;;;5012839;28;20199;-69
2022/12/28 07:45:26;;;;;;;1999.90;999.90;;;10.10;1.00;;;;;;5012678;28;20269;-70
2022/12/28 07:47:52;;;;;;;1999.90;999.90;;;10.30;1.00;;;;;;5012433;28;20203;-69
2022/12/28 07:50:18;;;;;;;1999.90;999.90;;;10.10;1.00;;;;;;5012440;28;20690;-69
2022/12/28 07:52:43;;;;;;;1999.90;999.90;;;10.10;1.00;;;;;;5012778;28;20572;-69
2022/12/28 07:55:09;;;;;;;1999.90;999.90;;;10.20;1.00;;;;;;5012579;28;20200;-70
2022/12/28 07:57:34;;;;;;;1999.90;999.90;;;10.10;1.00;;;;;;5012106;28;20206;-70
2022/12/28 08:00:01;;;;;;;1999.90;999.90;;;10.10;1.00;;;;;;5012421;28;20168;-69
2022/12/28 08:02:26;;;;;;;1999.90;999.90;;;10.20;1.00;;;;;;5014586;28;20205;-69
2022/12/28 08:04:52;;;;;;;1999.90;999.90;;;10.20;1.00;;;;;;5016268;28;20442;-70
2022/12/28 08:07:18;;;;;;;1999.90;999.90;;;10.10;1.00;;;;;;5016113;28;20200;-69
2022/12/28 08:09:43;;;;;;;1999.90;999.90;;;10.30;99.90;;;;;;5016140;28;20175;-69
2022/12/28 08:12:09;;;;;;;1999.90;999.90;;;10.30;99.90;;;;;;5016083;28;20214;-69
2022/12/28 08:14:34;;;;;;;1999.90;999.90;;;10.20;99.90;;;;;;5016142;28;20172;-70
2022/12/28 08:17:00;;;;;;;1999.90;999.90;;;10.30;99.90;;;;;;5015926;28;20207;-69
2022/12/28 08:19:25;;;;;;;1999.90;999.90;;;10.30;99.90;;;;;;5015711;28;20511;-70
2022/12/28 08:21:51;;;;;;;1999.90;999.90;;;10.30;99.90;;;;;;5015901;28;20173;-70
2022/12/28 08:24:18;;;;;;;1999.90;999.90;;;10.40;99.90;;;;;;5015995;28;20180;-69
2022/12/28 08:26:46;;;;;;;1999.90;999.90;;;10.40;99.90;;;;;;5015326;28;20218;-70
2022/12/28 08:29:18;;;;;;;1999.90;999.90;;;10.30;99.90;;;;;;5015531;28;20407;-69
2022/12/28 08:31:44;;;;;;;1999.90;999.90;;;10.40;99.90;;;;;;5016103;28;20447;-69
2022/12/28 08:34:14;;;;;;;1999.90;999.90;;;10.50;99.90;;;;;;5015742;28;20411;-70
2022/12/28 08:36:40;;;;;;;1999.90;999.90;;;10.50;99.90;;;;;;5015415;28;20517;-69
2022/12/28 08:39:06;;;;;;;1999.90;999.90;;;10.50;99.90;;;;;;5015497;28;20497;-69
2022/12/28 08:41:31;;;;;;;1999.90;999.90;;;10.50;99.90;;;;;;5015643;28;20423;-69
2022/12/28 08:43:57;;;;;;;1999.90;999.90;;;10.50;99.90;;;;;;5015669;28;20418;-70
2022/12/28 08:46:23;;;;;;;1999.90;999.90;;;10.50;99.90;;;;;;5015035;28;20721;-70
2022/12/28 08:48:50;;;;;;;1999.90;999.90;;;10.60;99.90;;;;;;5015284;28;20185;-69
2022/12/28 08:51:18;;;;;;;1999.90;999.90;;;10.50;99.90;;;;;;5015242;28;20164;-69
2022/12/28 08:53:45;;;;;;;1999.90;999.90;;;10.70;99.90;;;;;;5015337;28;20408;-69
2022/12/28 08:56:13;;;;;;;1999.90;999.90;;;10.60;99.90;;;;;;5015187;28;20431;-69
2022/12/28 08:58:40;;;;;;;1999.90;999.90;;;10.60;99.90;;;;;;5015011;28;20415;-69
2022/12/28 09:01:06;;;;;;;1999.90;999.90;;;10.60;99.90;;;;;;5015246;28;20415;-69
2022/12/28 09:03:33;;;;;;;1999.90;999.90;;;10.60;99.90;;;;;;5015232;28;20453;-69
2022/12/28 09:06:02;;;;;;;1999.90;999.90;;;10.60;99.90;;;;;;5014676;28;20189;-69
2022/12/28 09:08:28;;;;;;;1999.90;999.90;;;10.70;99.90;;;;;;5014479;28;20490;-69
2022/12/28 09:10:53;;;;;;;1999.90;999.90;;;10.70;99.90;;;;;;5015090;28;20814;-69
2022/12/28 09:13:19;;;;;;;1999.90;999.90;;;10.70;99.90;;;;;;5014867;28;20172;-69
2022/12/28 09:15:54;;;;;;;1999.90;999.90;;;10.60;99.90;;;;;;5014746;28;20198;-69
2022/12/28 09:18:19;;;;;;;1999.90;999.90;;;10.90;99.90;;;;;;5015002;28;20650;-70
2022/12/28 09:20:45;;;;;;;1999.90;999.90;;;10.80;99.90;;;;;;5014686;28;20420;-70
2022/12/28 09:23:11;;;;;;;1999.90;999.90;;;10.70;99.90;;;;;;5014818;28;20689;-69
2022/12/28 09:25:36;;;;;;;1999.90;999.90;;;10.80;99.90;;;;;;5015043;28;20597;-69
2022/12/28 09:28:02;;;;;;;1999.90;999.90;;;10.80;99.90;;;;;;5014315;28;20193;-70
2022/12/28 09:30:27;;;;;;;1999.90;999.90;;;10.90;99.90;;;;;;5014796;28;20177;-70
2022/12/28 09:33:57;;;;;;;1999.90;999.90;;;10.90;99.90;;;;;;5015942;28;20203;-70
2022/12/28 09:35:39;;;;;;;1999.90;999.90;;;11.10;99.90;;;;;;5015353;28;20584;-70
2022/12/28 09:38:04;;;;;;;1999.90;999.90;;;11.10;99.90;;;;;;5014929;28;20428;-69
2022/12/28 09:40:32;;;;;;;1999.90;999.90;;;10.90;99.90;;;;;;5014594;28;20216;-69
2022/12/28 09:42:57;;;;;;;1999.90;999.90;;;11.00;99.90;;;;;;5014294;28;20219;-70
2022/12/28 09:45:25;;;;;;;1999.90;999.90;;;11.00;99.90;;;;;;5013971;28;20458;-70
2022/12/28 09:47:56;;;;;;;1999.90;999.90;;;11.00;99.90;;;;;;5013804;28;20662;-69
2022/12/28 09:50:31;;;;;;;1999.90;999.90;;;11.10;99.90;;;;;;5014189;28;20478;-69
2022/12/28 09:53:14;;;;;;;1999.90;999.90;;;11.10;99.90;;;;;;5014624;28;20492;-69
2022/12/28 09:55:42;;;;;;;1999.90;999.90;;;11.00;99.90;;;;;;5014076;28;20407;-70
2022/12/28 09:58:16;;;;;;;1999.90;999.90;;;11.00;99.90;;;;;;5013621;28;20412;-70
2022/12/28 10:00:46;;;;;;;1999.90;999.90;;;11.10;99.90;;;;;;5013932;28;20407;-70
2022/12/28 10:03:22;;;;;;;1999.90;999.90;;;11.10;85.90;;;;;;5013969;28;20416;-69
2022/12/28 10:05:50;;;;;;;1999.90;999.90;;;11.30;99.90;;;;;;5013527;28;20451;-69
2022/12/28 10:08:20;;;;;;;1999.90;999.90;;;11.10;99.90;;;;;;5013661;28;20404;-69
2022/12/28 10:10:47;;;;;;;1999.90;999.90;;;11.20;99.90;;;;;;5013625;28;20875;-70
2022/12/28 10:13:37;;;;;;;1999.90;999.90;;;11.10;99.90;;;;;;5013414;28;20400;-70
2022/12/28 10:16:05;;;;;;;1999.90;999.90;;;11.20;99.90;;;;;;5003145;28;20455;-70
2022/12/28 10:18:30;;;;;;;1999.90;999.90;;;11.20;99.90;;;;;;5013405;28;20418;-70
2022/12/28 10:20:56;;;;;;;1999.90;999.90;;;11.20;99.90;;;;;;5013359;28;20404;-70
2022/12/28 10:23:26;;;;;;;1999.90;999.90;;;11.20;69.80;;;;;;5013266;28;20222;-70
2022/12/28 10:25:54;;;;;;;1999.90;999.90;;;11.10;50.10;;;;;;5012775;28;20211;-70
2022/12/28 10:28:22;;;;;;;1999.90;999.90;;;11.20;1.00;;;;;;5013209;28;20416;-70
2022/12/28 10:31:09;;;;;;;1999.90;999.90;;;11.30;26.10;;;;;;5013286;28;20443;-70
2022/12/28 10:33:48;;;;;;;1999.90;999.90;;;11.20;35.40;;;;;;5013276;28;20419;-70
2022/12/28 10:36:15;;;;;;;1999.90;999.90;;;11.20;1.00;;;;;;5013105;28;20520;-69
2022/12/28 10:38:47;;;;;;;1999.90;999.90;;;11.30;1.00;;;;;;5012780;28;20411;-69
2022/12/28 10:41:15;;;;;;;1999.90;999.90;;;11.30;1.00;;;;;;5012956;28;20762;-69
2022/12/28 10:43:44;;;;;;;1999.90;999.90;;;11.30;1.00;;;;;;5012965;28;20423;-69
2022/12/28 10:46:21;;;;;;;1999.90;999.90;;;11.30;17.80;;;;;;5012515;28;20459;-69
2022/12/28 10:48:53;;;;;;;1999.90;999.90;;;11.30;79.30;;;;;;5012834;28;20969;-69
2022/12/28 10:51:21;;;;;;;1999.90;999.90;;;11.30;31.00;;;;;;5012823;28;20454;-69
2022/12/28 10:53:55;;;;;;;1999.90;999.90;;;11.40;1.00;;;;;;5012724;28;20407;-70
2022/12/28 10:56:26;;;;;;;1999.90;999.90;;;11.40;36.90;;;;;;5010178;28;20443;-69
2022/12/28 10:59:13;;;;;;;1999.90;999.90;;;11.40;72.10;;;;;;5012518;28;20760;-70
2022/12/28 11:01:41;;;;;;;1999.90;999.90;;;11.40;1.00;;;;;;5002298;28;20432;-69
2022/12/28 11:04:19;;;;;;;1999.90;999.90;;;11.40;1.00;;;;;;5009536;28;20418;-69
2022/12/28 11:07:02;;;;;;;1999.90;999.90;;;11.40;1.00;;;;;;5012664;28;20481;-70
2022/12/28 11:09:30;;;;;;;1999.90;999.90;;;11.40;1.00;;;;;;5012366;28;20396;-70
2022/12/28 11:12:21;;;;;;;1999.90;999.90;;;11.30;1.00;;;;;;5011551;28;21080;-69
2022/12/28 11:14:48;;;;;;;1999.90;999.90;;;11.30;1.00;;;;;;5012071;28;20458;-68
2022/12/28 11:17:20;;;;;;;1999.90;999.90;;;11.30;99.90;;;;;;5011715;28;20540;-68
2022/12/28 11:19:49;;;;;;;1999.90;999.90;;;11.40;99.90;;;;;;5011530;28;20414;-69
2022/12/28 11:22:20;;;;;;;1999.90;999.90;;;11.30;99.90;;;;;;5011900;28;20774;-69
2022/12/28 11:24:46;;;;;;;1999.90;999.90;;;11.30;99.90;;;;;;5011580;28;20829;-68
2022/12/28 11:27:16;;;;;;;1999.90;999.90;;;11.30;99.90;;;;;;5011393;28;20483;-69
2022/12/28 11:29:45;;;;;;;1999.90;999.90;;;11.30;1.00;;;;;;5011610;28;20165;-69
2022/12/28 11:32:19;;;;;;;1999.90;999.90;;;11.30;99.90;;;;;;5011369;28;20834;-69
2022/12/28 11:34:45;;;;;;;1999.90;999.90;;;11.30;99.90;;;;;;5011779;28;20407;-68
2022/12/28 11:37:14;;;;;;;1999.90;999.90;;;11.20;1.00;;;;;;5013352;28;20434;-69
2022/12/28 11:39:51;;;;;;;1999.90;999.90;;;11.20;99.90;;;;;;5015232;28;20406;-68
2022/12/28 11:42:31;;;;;;;1999.90;999.90;;;11.20;1.00;;;;;;5015990;28;20416;-68
2022/12/28 11:44:59;;;;;;;1999.90;999.90;;;11.20;1.00;;;;;;5016172;28;20418;-69
2022/12/28 11:47:32;;;;;;;1999.90;999.90;;;11.20;1.00;;;;;;5015474;28;20496;-68
2022/12/28 11:50:38;;;;;;;1999.90;999.90;;;11.20;99.90;;;;;;5015947;28;20896;-68
2022/12/28 11:53:30;;;;;;;1999.90;999.90;;;11.30;99.90;;;;;;5015829;28;20385;-69
2022/12/28 11:56:09;;;;;;;1999.90;999.90;;;11.40;99.90;;;;;;5007435;28;20417;-68
2022/12/28 11:58:41;;;;;;;1999.90;999.90;;;11.30;1.00;;;;;;5015663;28;20485;-69
2022/12/28 12:01:15;;;;;;;1999.90;999.90;;;11.30;1.00;;;;;;5015816;28;20461;-69
2022/12/28 12:03:56;;;;;;;1999.90;999.90;;;11.20;1.00;;;;;;5015059;28;20501;-68
2022/12/28 12:06:40;;;;;;;1999.90;999.90;;;11.20;1.00;;;;;;5015431;28;20533;-69
2022/12/28 12:09:21;;;;;;;1999.90;999.90;;;11.20;99.90;;;;;;5015253;28;20396;-68
2022/12/28 12:11:51;;;;;;;1999.90;999.90;;;11.30;55.60;;;;;;5015273;28;20406;-68
2022/12/28 12:14:25;;;;;;;1999.90;999.90;;;11.30;1.00;;;;;;5015241;28;20403;-68
2022/12/28 12:17:01;;;;;;;1999.90;999.90;;;11.30;1.00;;;;;;5014540;28;20466;-69
2022/12/28 12:19:30;;;;;;;1999.90;999.90;;;11.30;79.20;;;;;;5015054;28;20466;-69
2022/12/28 12:22:18;;;;;;;1999.90;999.90;;;11.30;99.90;;;;;;5016249;28;20954;-69
2022/12/28 12:25:07;;;;;;;1999.90;999.90;;;11.20;1.00;;;;;;5014755;28;20738;-68
2022/12/28 12:27:39;;;;;;;1999.90;999.90;;;11.20;1.00;;;;;;5014880;28;20435;-68
2022/12/28 12:30:14;;;;;;;1999.90;999.90;;;11.20;1.00;;;;;;5015192;28;20521;-69
2022/12/28 12:32:44;;;;;;;1999.90;999.90;;;11.20;41.90;;;;;;5014967;28;20419;-69
2022/12/28 12:35:15;;;;;;;1999.90;999.90;;;11.20;99.90;;;;;;5015437;28;20780;-69
2022/12/28 12:38:18;;;;;;;1999.90;999.90;;;11.20;42.00;;;;;;5014785;28;20439;-69
2022/12/28 12:41:07;;;;;;;1999.90;999.90;;;11.20;99.90;;;;;;5014714;28;20457;-69
2022/12/28 12:44:17;;;;;;;1999.90;999.90;;;11.20;99.90;;;;;;5015303;28;20890;-68
2022/12/28 12:47:14;;;;;;;1999.90;999.90;;;11.20;99.90;;;;;;4953376;28;21024;-69
2022/12/28 12:50:09;;;;;;;1999.90;999.90;;;11.10;99.90;;;;;;5014720;28;20763;-69
2022/12/28 12:52:59;;;;;;;1999.90;999.90;;;11.10;99.90;;;;;;5006708;28;20478;-69